Terminal Aerodrome Forecast
Issued by NWS

Home | Current Version | Previous Version | Text Only | Print | Product List | Glossary On
Versions: 1 2 3 4 5 6 7 8 9 10 11 12
000
FTUS45 KABQ 241100
TAFGUP
TAF
KGUP 241121Z 2412/2512 VRB04KT P6SM SCT100
     FM241900 29015G25KT P6SM SCT100
     FM242200 33013G23KT P6SM SCT100
     FM250200 35006KT P6SM SCT100=

USA.gov is the U.S. government's official web portal to all federal, state and local government web resources and services.